createdAt,value
2022-09-12T00:00:30.303Z,35.76
2022-09-12T00:03:58.512Z,36.16
2022-09-12T00:07:36.883Z,36.28
2022-09-12T00:11:06.207Z,36.33
2022-09-12T00:14:32.847Z,36.68
2022-09-12T00:18:04.216Z,36.60
2022-09-12T00:21:31.894Z,36.57
2022-09-12T00:24:49.168Z,36.85
2022-09-12T00:28:16.422Z,36.89
2022-09-12T00:31:51.332Z,37.00
2022-09-12T00:35:18.148Z,37.45
2022-09-12T00:38:45.288Z,37.34
2022-09-12T00:42:18.196Z,37.42
2022-09-12T00:45:38.323Z,37.34
2022-09-12T00:48:58.146Z,37.19
2022-09-12T00:52:02.859Z,37.20
2022-09-12T00:55:30.023Z,37.35
2022-09-12T00:58:58.142Z,37.29
2022-09-12T01:02:28.688Z,37.20
2022-09-12T01:05:57.947Z,36.97
2022-09-12T01:09:16.934Z,36.99
2022-09-12T01:12:44.920Z,36.87
2022-09-12T01:16:15.990Z,36.94
2022-09-12T01:19:41.663Z,37.11
2022-09-12T01:23:19.880Z,36.92
2022-09-12T01:26:44.381Z,37.04
2022-09-12T01:30:27.499Z,36.83
2022-09-12T01:34:07.339Z,36.99
2022-09-12T01:37:34.431Z,36.80
2022-09-12T01:41:03.490Z,37.05
2022-09-12T01:44:39.907Z,37.13
2022-09-12T01:47:52.927Z,37.33
2022-09-12T01:51:23.035Z,37.31
2022-09-12T01:54:53.467Z,37.50
2022-09-12T01:58:34.108Z,37.72
2022-09-12T02:01:49.193Z,38.00
2022-09-12T02:05:19.019Z,38.07
2022-09-12T02:09:04.362Z,38.30
2022-09-12T02:12:31.813Z,38.30
2022-09-12T02:15:41.228Z,38.39
2022-09-12T02:19:08.216Z,38.67
2022-09-12T02:22:25.026Z,39.17
2022-09-12T02:25:52.697Z,39.26
2022-09-12T02:29:20.141Z,39.68
2022-09-12T02:36:35.331Z,40.31
2022-09-12T02:39:32.964Z,40.13
2022-09-12T02:42:50.740Z,40.33
2022-09-12T02:46:17.858Z,40.48
2022-09-12T02:49:30.422Z,40.62
2022-09-12T02:52:47.355Z,40.93
2022-09-12T02:56:07.664Z,41.05
2022-09-12T02:59:17.484Z,41.23
2022-09-12T03:02:54.768Z,41.46
2022-09-12T03:06:12.937Z,42.22
2022-09-12T03:09:50.381Z,42.76
2022-09-12T03:13:02.034Z,42.88
2022-09-12T03:16:47.793Z,42.91
2022-09-12T03:20:19.523Z,42.71
2022-09-12T03:24:01.470Z,42.64
2022-09-12T03:27:18.184Z,42.80
2022-09-12T03:30:44.944Z,43.06
2022-09-12T03:34:14.187Z,43.39
2022-09-12T03:37:33.835Z,43.66
2022-09-12T03:40:40.283Z,43.86
2022-09-12T03:43:46.233Z,44.06
2022-09-12T03:47:08.036Z,44.40
2022-09-12T03:50:37.477Z,44.66
2022-09-12T03:54:04.417Z,44.78
2022-09-12T03:57:31.887Z,45.11
2022-09-12T04:00:49.287Z,45.31
2022-09-12T04:04:02.868Z,45.63
2022-09-12T04:07:29.625Z,45.74
2022-09-12T04:10:46.983Z,46.09
2022-09-12T04:14:02.964Z,46.43
2022-09-12T04:17:31.580Z,46.45
2022-09-12T04:20:51.208Z,46.67
2022-09-12T04:24:21.945Z,46.91
2022-09-12T04:27:48.300Z,47.25
2022-09-12T04:31:15.163Z,47.62
2022-09-12T04:34:43.137Z,47.72
2022-09-12T04:38:11.088Z,48.02
2022-09-12T04:40:58.245Z,48.50
2022-09-12T04:44:08.008Z,48.86
2022-09-12T04:47:04.802Z,49.23
2022-09-12T04:50:15.188Z,49.36
2022-09-12T04:53:42.426Z,49.60
2022-09-12T04:57:10.053Z,50.06
2022-09-12T05:00:28.749Z,50.13
2022-09-12T05:03:36.338Z,50.42
2022-09-12T05:06:32.316Z,50.82
2022-09-12T05:09:50.530Z,50.87
2022-09-12T05:13:17.295Z,51.18
2022-09-12T05:16:49.031Z,51.27
2022-09-12T05:19:30.210Z,51.21
2022-09-12T05:22:50.017Z,51.33
2022-09-12T05:26:03.969Z,51.41
2022-09-12T05:29:34.188Z,51.85
2022-09-12T05:33:01.206Z,52.03
2022-09-12T05:36:22.742Z,52.06
2022-09-12T05:39:33.221Z,52.33
2022-09-12T05:42:42.753Z,52.43
2022-09-12T05:46:12.069Z,52.51
2022-09-12T05:49:13.156Z,52.48
2022-09-12T05:52:29.868Z,52.55
2022-09-12T05:55:57.405Z,52.75
2022-09-12T05:59:18.122Z,52.83
2022-09-12T06:02:45.130Z,52.95
2022-09-12T06:06:03.753Z,53.27
2022-09-12T06:09:14.897Z,53.48
2022-09-12T06:12:42.644Z,53.50
2022-09-12T06:16:02.615Z,53.78
2022-09-12T06:19:22.656Z,53.89
2022-09-12T06:22:48.786Z,53.99
2022-09-12T06:26:16.204Z,54.06
2022-09-12T06:29:44.124Z,54.21
2022-09-12T06:33:11.490Z,54.43
2022-09-12T06:36:30.204Z,54.37
2022-09-12T06:40:01.942Z,54.56
2022-09-12T06:43:29.356Z,54.72
2022-09-12T06:46:56.436Z,54.69
2022-09-12T06:50:23.466Z,54.93
2022-09-12T06:53:50.643Z,55.02
2022-09-12T06:57:17.982Z,55.23
2022-09-12T07:00:42.592Z,55.40
2022-09-12T07:04:09.756Z,55.88
2022-09-12T07:07:39.854Z,56.26
2022-09-12T07:10:59.360Z,56.65
2022-09-12T07:13:52.866Z,56.86
2022-09-12T07:17:10.023Z,57.15
2022-09-12T07:20:36.473Z,57.33
2022-09-12T07:23:47.937Z,57.45
2022-09-12T07:26:29.840Z,57.77
2022-09-12T07:29:57.863Z,57.98
2022-09-12T07:33:26.227Z,58.25
2022-09-12T07:36:45.858Z,58.49
2022-09-12T07:40:15.686Z,58.87
2022-09-12T07:43:42.579Z,59.01
2022-09-12T07:47:10.594Z,59.06
2022-09-12T07:50:29.279Z,59.19
2022-09-12T07:54:00.100Z,59.13
2022-09-12T07:57:18.234Z,59.21
2022-09-12T08:00:38.923Z,59.29
2022-09-12T08:03:56.758Z,59.36
2022-09-12T08:07:22.912Z,59.44
2022-09-12T08:10:42.887Z,59.38
2022-09-12T08:14:09.607Z,59.28
2022-09-12T08:17:36.075Z,59.21
2022-09-12T08:21:04.841Z,59.01
2022-09-12T08:24:35.068Z,58.92
2022-09-12T08:28:03.964Z,58.89
2022-09-12T08:31:21.521Z,58.75
2022-09-12T08:34:39.395Z,58.71
2022-09-12T08:37:56.206Z,58.90
2022-09-12T08:41:33.134Z,59.18
2022-09-12T08:44:50.182Z,59.43
2022-09-12T08:48:29.858Z,59.45
2022-09-12T08:51:56.580Z,59.61
2022-09-12T08:55:13.755Z,59.81
2022-09-12T08:58:11.134Z,60.03
2022-09-12T09:01:21.950Z,60.20
2022-09-12T09:05:07.110Z,60.54
2022-09-12T09:08:32.497Z,60.93
2022-09-12T09:11:54.385Z,61.25
2022-09-12T09:15:16.682Z,61.54
2022-09-12T09:18:47.439Z,61.69
2022-09-12T09:22:15.460Z,62.16
2022-09-12T09:24:58.927Z,62.32
2022-09-12T09:28:05.193Z,62.55
2022-09-12T09:31:15.315Z,62.86
2022-09-12T09:34:32.578Z,63.18
2022-09-12T09:38:02.681Z,63.42
2022-09-12T09:41:34.027Z,63.52
2022-09-12T09:45:02.444Z,63.55
2022-09-12T09:48:16.842Z,63.72
2022-09-12T09:51:06.218Z,63.76
2022-09-12T09:54:07.127Z,63.82
2022-09-12T09:57:29.986Z,63.98
2022-09-12T10:00:10.952Z,64.21
2022-09-12T10:03:36.050Z,64.42
2022-09-12T10:06:52.855Z,64.47
2022-09-12T10:10:25.755Z,64.59
2022-09-12T10:13:20.582Z,64.53
2022-09-12T10:15:39.634Z,64.72
2022-09-12T10:18:41.212Z,64.95
2022-09-12T10:21:58.224Z,64.97
2022-09-12T10:25:24.920Z,65.33
2022-09-12T10:28:25.270Z,65.32
2022-09-12T10:31:53.270Z,65.22
2022-09-12T10:35:29.717Z,65.58
2022-09-12T10:38:39.344Z,65.69
2022-09-12T10:41:40.918Z,65.61
2022-09-12T10:44:40.999Z,65.81
2022-09-12T10:48:23.149Z,66.00
2022-09-12T10:51:23.071Z,65.91
2022-09-12T10:54:51.176Z,65.86
2022-09-12T10:58:15.152Z,66.01
2022-09-12T11:00:59.439Z,65.96
2022-09-12T11:04:35.074Z,66.07
2022-09-12T11:08:05.368Z,66.15
2022-09-12T11:11:24.151Z,66.26
2022-09-12T11:14:49.728Z,66.32
2022-09-12T11:17:56.853Z,66.42
2022-09-12T11:21:14.039Z,66.34
2022-09-12T11:24:19.215Z,66.43
2022-09-12T11:27:31.248Z,66.52
2022-09-12T11:30:58.252Z,66.74
2022-09-12T11:34:19.940Z,66.85
2022-09-12T11:37:42.048Z,66.98
2022-09-12T11:41:18.051Z,67.23
2022-09-12T11:44:52.446Z,67.22
2022-09-12T11:48:09.750Z,67.41
2022-09-12T11:51:20.030Z,67.46
2022-09-12T11:54:56.380Z,67.58
2022-09-12T11:58:11.679Z,67.70
2022-09-12T12:01:38.849Z,67.71
2022-09-12T12:04:53.078Z,67.73
2022-09-12T12:07:49.807Z,67.70
2022-09-12T12:10:10.174Z,67.78
2022-09-12T12:12:59.364Z,67.82
2022-09-12T12:16:16.256Z,67.94
2022-09-12T12:19:48.759Z,67.99
2022-09-12T12:23:12.717Z,67.92
2022-09-12T12:26:33.323Z,68.10
2022-09-12T12:29:57.746Z,68.27
2022-09-12T12:33:24.116Z,68.28
2022-09-12T12:36:02.813Z,68.57
2022-09-12T12:38:54.532Z,68.46
2022-09-12T12:41:43.821Z,68.63
2022-09-12T12:44:48.203Z,68.77
2022-09-12T12:47:41.083Z,68.77
2022-09-12T12:49:58.784Z,68.85
2022-09-12T12:52:04.789Z,68.93
2022-09-12T12:54:33.765Z,68.88
2022-09-12T12:56:42.029Z,68.89
2022-09-12T12:58:48.007Z,69.06
2022-09-12T13:01:45.687Z,68.95
2022-09-12T13:04:08.182Z,69.05
2022-09-12T13:07:14.046Z,69.00
2022-09-12T13:10:19.707Z,69.22
2022-09-12T13:13:06.358Z,69.37
2022-09-12T13:16:11.842Z,69.45
2022-09-12T13:19:18.165Z,69.59
2022-09-12T13:22:11.607Z,69.54
2022-09-12T13:25:21.075Z,69.51
2022-09-12T13:28:00.772Z,69.69
2022-09-12T13:31:08.273Z,69.62
2022-09-12T13:34:23.242Z,69.78
2022-09-12T13:37:15.136Z,69.72
2022-09-12T13:40:21.232Z,69.86
2022-09-12T13:43:21.522Z,69.97
2022-09-12T13:46:30.517Z,70.14
2022-09-12T13:49:28.370Z,70.04
2022-09-12T13:52:35.277Z,70.04
2022-09-12T13:55:43.235Z,70.12
2022-09-12T13:58:41.847Z,70.12
2022-09-12T14:01:48.118Z,70.27
2022-09-12T14:04:42.631Z,70.20
2022-09-12T14:07:45.308Z,70.22
2022-09-12T14:10:25.266Z,70.21
2022-09-12T14:13:31.674Z,70.22
2022-09-12T14:16:27.122Z,70.40
2022-09-12T14:19:16.596Z,70.38
2022-09-12T14:21:59.808Z,70.25
2022-09-12T14:24:47.105Z,70.39
2022-09-12T14:27:53.556Z,70.52
2022-09-12T14:30:48.384Z,70.49
2022-09-12T14:33:55.639Z,70.64
2022-09-12T14:37:05.624Z,70.60
2022-09-12T14:39:47.806Z,70.54
2022-09-12T14:42:44.246Z,70.48
2022-09-12T14:45:39.644Z,70.55
2022-09-12T14:48:49.482Z,70.61
2022-09-12T14:51:54.409Z,70.79
2022-09-12T14:54:52.671Z,70.90
2022-09-12T14:57:57.349Z,70.78
2022-09-12T15:01:03.706Z,70.69
2022-09-12T15:04:17.187Z,70.62
2022-09-12T15:07:04.297Z,70.65
2022-09-12T15:10:10.848Z,70.89
2022-09-12T15:13:18.519Z,71.01
2022-09-12T15:16:15.828Z,71.03
2022-09-12T15:19:22.258Z,71.02
2022-09-12T15:22:19.322Z,71.11
2022-09-12T15:24:58.740Z,71.18
2022-09-12T15:28:05.215Z,71.03
2022-09-12T15:31:13.471Z,71.03
2022-09-12T15:34:19.386Z,71.17
2022-09-12T15:37:25.827Z,71.12
2022-09-12T15:40:31.939Z,71.03
2022-09-12T15:43:40.313Z,70.92
2022-09-12T15:46:29.924Z,70.85
2022-09-12T15:49:36.619Z,70.71
2022-09-12T15:52:44.022Z,70.70
2022-09-12T15:55:41.621Z,70.54
2022-09-12T15:58:31.814Z,70.37
2022-09-12T16:04:25.716Z,70.39
2022-09-12T16:07:56.078Z,70.30
2022-09-12T16:14:59.111Z,70.46
2022-09-12T16:18:16.742Z,70.44
2022-09-12T16:21:33.515Z,70.55
2022-09-12T16:25:00.101Z,70.49
2022-09-12T16:28:06.008Z,70.40
2022-09-12T16:31:13.844Z,70.24
2022-09-12T16:34:39.470Z,70.07
2022-09-12T16:37:54.949Z,70.23
2022-09-12T16:41:02.231Z,70.42
2022-09-12T16:44:31.140Z,70.53
2022-09-12T16:47:28.712Z,70.68
2022-09-12T16:50:46.556Z,70.58
2022-09-12T16:53:53.350Z,70.35
2022-09-12T16:56:51.151Z,70.46
2022-09-12T16:59:21.163Z,70.45
2022-09-12T17:02:28.576Z,70.30
2022-09-12T17:04:59.678Z,70.33
2022-09-12T17:07:56.767Z,70.40
2022-09-12T17:10:49.972Z,70.22
2022-09-12T17:14:09.552Z,70.22
2022-09-12T17:17:21.625Z,70.08
2022-09-12T17:20:48.813Z,70.11
2022-09-12T17:23:55.769Z,70.23
2022-09-12T17:27:23.546Z,69.77
2022-09-12T17:30:30.946Z,69.59
2022-09-12T17:33:48.531Z,69.84
2022-09-12T17:37:15.426Z,69.73
2022-09-12T17:40:58.975Z,69.66
2022-09-12T17:44:06.157Z,69.44
2022-09-12T17:47:05.290Z,69.05
2022-09-12T17:50:39.410Z,68.11
2022-09-12T17:53:45.594Z,67.37
2022-09-12T17:57:06.136Z,66.80
2022-09-12T18:00:36.294Z,66.76
2022-09-12T18:03:53.282Z,66.70
2022-09-12T18:07:11.947Z,66.05
2022-09-12T18:10:29.394Z,65.41
2022-09-12T18:13:56.374Z,64.95
2022-09-12T18:17:06.384Z,64.17
2022-09-12T18:20:13.493Z,63.27
2022-09-12T18:23:01.981Z,63.04
2022-09-12T18:26:20.282Z,62.95
2022-09-12T18:30:04.271Z,62.27
2022-09-12T18:33:36.257Z,61.52
2022-09-12T18:37:12.526Z,61.10
2022-09-12T18:40:19.332Z,61.10
2022-09-12T18:43:36.616Z,61.14
2022-09-12T18:47:06.298Z,61.11
2022-09-12T18:50:33.049Z,60.46
2022-09-12T18:53:58.603Z,60.41
2022-09-12T18:57:15.412Z,60.75
2022-09-12T19:00:26.175Z,60.98
2022-09-12T19:03:45.883Z,60.85
2022-09-12T19:06:52.362Z,60.45
2022-09-12T19:10:09.249Z,60.10
2022-09-12T19:13:16.925Z,60.05
2022-09-12T19:16:06.351Z,60.16
2022-09-12T19:19:06.239Z,59.84
2022-09-12T19:22:25.706Z,59.72
2022-09-12T19:25:52.464Z,59.19
2022-09-12T19:28:52.061Z,59.88
2022-09-12T19:31:48.835Z,58.44
2022-09-12T19:35:19.606Z,58.04
2022-09-12T19:38:48.447Z,59.02
2022-09-12T19:42:08.095Z,59.15
2022-09-12T19:45:26.589Z,59.10
2022-09-12T19:48:48.934Z,58.68
2022-09-12T19:52:17.541Z,58.41
2022-09-12T19:55:24.545Z,58.14
2022-09-12T19:58:56.639Z,57.42
2022-09-12T20:02:17.444Z,57.06
2022-09-12T20:05:44.332Z,56.52
2022-09-12T20:09:11.095Z,55.73
2022-09-12T20:12:22.146Z,55.13
2022-09-12T20:15:38.792Z,54.06
2022-09-12T20:18:56.569Z,53.11
2022-09-12T20:21:48.134Z,52.64
2022-09-12T20:25:14.225Z,52.80
2022-09-12T20:28:22.104Z,52.71
2022-09-12T20:31:32.260Z,51.86
2022-09-12T20:34:57.726Z,51.87
2022-09-12T20:38:14.638Z,51.78
2022-09-12T20:41:29.778Z,50.81
2022-09-12T20:44:31.314Z,50.79
2022-09-12T20:47:27.305Z,50.61
2022-09-12T20:50:31.967Z,51.19
2022-09-12T20:53:31.720Z,51.32
2022-09-12T20:56:35.302Z,51.64
2022-09-12T20:59:43.572Z,51.48
2022-09-12T21:02:44.403Z,51.49
2022-09-12T21:05:25.940Z,51.33
2022-09-12T21:08:36.263Z,51.11
2022-09-12T21:11:29.802Z,50.78
2022-09-12T21:14:39.760Z,50.70
2022-09-12T21:17:40.312Z,50.72
2022-09-12T21:20:37.865Z,50.73
2022-09-12T21:23:53.601Z,51.00
2022-09-12T21:26:36.759Z,50.87
2022-09-12T21:29:29.924Z,50.47
2022-09-12T21:32:03.194Z,50.30
2022-09-12T21:34:50.769Z,50.15
2022-09-12T21:38:07.396Z,50.12
2022-09-12T21:41:24.579Z,50.24
2022-09-12T21:44:42.518Z,49.96
2022-09-12T21:47:48.307Z,49.53
2022-09-12T21:51:04.235Z,49.48
2022-09-12T21:54:13.555Z,49.25
2022-09-12T21:56:55.146Z,49.25
2022-09-12T22:00:22.052Z,49.49
2022-09-12T22:03:39.906Z,49.56
2022-09-12T22:07:07.352Z,49.41
2022-09-12T22:10:24.980Z,49.43
2022-09-12T22:13:23.062Z,49.42
2022-09-12T22:16:54.285Z,49.33
2022-09-12T22:20:12.352Z,49.28
2022-09-12T22:23:39.198Z,49.21
2022-09-12T22:26:51.277Z,49.16
2022-09-12T22:30:18.492Z,49.08
2022-09-12T22:33:39.067Z,48.96
2022-09-12T22:36:38.795Z,48.97
2022-09-12T22:39:55.998Z,48.95
2022-09-12T22:42:53.815Z,49.13
2022-09-12T22:46:00.801Z,49.15
2022-09-12T22:49:08.993Z,49.14
2022-09-12T22:52:36.667Z,48.97
2022-09-12T22:55:22.660Z,48.59
2022-09-12T22:58:30.209Z,48.53
2022-09-12T23:01:29.365Z,47.98
2022-09-12T23:04:38.799Z,47.60
2022-09-12T23:07:19.101Z,47.24
2022-09-12T23:10:20.701Z,47.31
2022-09-12T23:12:57.412Z,47.35
2022-09-12T23:16:14.171Z,47.35
2022-09-12T23:19:35.462Z,47.67
2022-09-12T23:23:03.150Z,47.55
2022-09-12T23:25:59.799Z,47.86
2022-09-12T23:29:30.681Z,47.82
2022-09-12T23:32:00.259Z,47.68
2022-09-12T23:35:28.370Z,47.54
2022-09-12T23:38:45.334Z,47.23
2022-09-12T23:41:37.194Z,47.19
2022-09-12T23:45:05.218Z,47.26
2022-09-12T23:48:32.963Z,47.51
2022-09-12T23:51:59.508Z,47.21
2022-09-12T23:55:30.320Z,47.35
2022-09-12T23:58:57.525Z,47.16
